Time;durP1;ratioP1;P1;durP2;ratioP2;P2;SDS_P1;SDS_P2;PMS_P1;PMS_P2;Temp;Humidity;BMP_temperature;BMP_pressure;BME280_temperature;BME280_humidity;BME280_pressure;Samples;Min_cycle;Max_cycle;Signal;HPM_P1;HPM_P2
2022/06/03 00:02:24;;;;;;;8.98;6.13;;;;;;;18.12;100.00;98410.59;5052015;28;20037;-75
2022/06/03 00:05:23;;;;;;;11.35;5.70;;;;;;;18.18;100.00;98412.03;5053162;28;20523;-75
2022/06/03 00:08:19;;;;;;;7.53;5.15;;;;;;;18.16;100.00;98400.50;5053218;28;20035;-76
2022/06/03 00:10:50;;;;;;;;;;;;;;;18.17;100.00;98402.09;5053232;28;20547;-76
2022/06/03 00:13:21;;;;;;;4.57;3.90;;;;;;;18.26;100.00;98404.84;5052790;28;20262;-76
2022/06/03 00:15:56;;;;;;;5.05;4.20;;;;;;;18.23;100.00;98408.25;5051492;28;20033;-76
2022/06/03 00:18:40;;;;;;;4.37;3.43;;;;;;;18.23;100.00;98413.00;5052762;28;20051;-76
2022/06/03 00:21:09;;;;;;;6.88;4.20;;;;;;;18.19;100.00;98402.59;5052683;28;20650;-76
2022/06/03 00:24:15;;;;;;;7.13;4.32;;;;;;;18.27;100.00;98413.94;5052668;28;20021;-76
2022/06/03 00:27:10;;;;;;;5.23;3.60;;;;;;;18.31;100.00;98403.81;5052742;28;20120;-75
2022/06/03 00:30:07;;;;;;;7.45;4.38;;;;;;;18.27;100.00;98395.34;5032844;28;20048;-74
2022/06/03 00:32:44;;;;;;;7.18;4.53;;;;;;;18.32;100.00;98386.06;5052446;28;20501;-76
2022/06/03 00:35:12;;;;;;;6.00;4.18;;;;;;;18.27;100.00;98384.28;5052489;28;20082;-75
2022/06/03 00:37:38;;;;;;;5.60;3.90;;;;;;;18.30;100.00;98382.78;5051808;28;20132;-75
2022/06/03 00:40:03;;;;;;;5.38;3.83;;;;;;;18.33;100.00;98382.13;5051076;28;20119;-75
2022/06/03 00:42:35;;;;;;;8.80;4.15;;;;;;;18.35;100.00;98368.75;5051308;28;20029;-75
2022/06/03 00:45:15;;;;;;;6.13;4.07;;;;;;;18.35;100.00;98377.06;5052320;28;20032;-76
2022/06/03 00:48:01;;;;;;;6.72;4.13;;;;;;;18.33;100.00;98376.56;5052271;28;20104;-76
2022/06/03 00:50:54;;;;;;;7.20;3.95;;;;;;;18.29;100.00;98372.88;5058623;28;20024;-77
2022/06/03 00:53:45;;;;;;;5.22;4.20;;;;;;;18.24;100.00;98340.63;5055130;28;20079;-75
2022/06/03 00:56:31;;;;;;;5.75;4.25;;;;;;;17.97;100.00;98314.25;5054291;28;20035;-75
2022/06/03 00:59:14;;;;;;;5.03;4.50;;;;;;;17.99;100.00;98305.59;5052037;28;20091;-75
2022/06/03 01:01:53;;;;;;;8.85;4.95;;;;;;;17.88;100.00;98293.31;5052089;28;20029;-77
2022/06/03 01:04:21;;;;;;;5.55;4.55;;;;;;;17.84;100.00;98293.16;5051961;28;20078;-76
2022/06/03 01:07:07;;;;;;;6.32;5.18;;;;;;;17.79;100.00;98300.84;5052108;28;20040;-76
2022/06/03 01:10:03;;;;;;;6.32;4.65;;;;;;;17.82;100.00;98322.34;5052134;28;20033;-76
2022/06/03 01:12:37;;;;;;;8.10;5.18;;;;;;;17.82;100.00;98350.00;5050430;28;20032;-76
2022/06/03 01:15:40;;;;;;;7.40;4.80;;;;;;;17.87;100.00;98353.41;5051655;28;20123;-74
2022/06/03 01:18:23;;;;;;;6.80;5.53;;;;;;;17.93;100.00;98341.00;5050273;28;20096;-76
2022/06/03 01:21:28;;;;;;;5.50;4.80;;;;;;;17.93;100.00;98318.84;5051452;28;20046;-76
2022/06/03 01:24:12;;;;;;;6.43;5.10;;;;;;;17.99;100.00;98317.50;5051501;28;20040;-76
2022/06/03 01:26:56;;;;;;;7.88;5.32;;;;;;;17.99;100.00;98317.50;5051304;28;20036;-76
2022/06/03 01:30:07;;;;;;;6.32;5.30;;;;;;;17.96;100.00;98320.13;5051270;28;20032;-76
2022/06/03 01:32:59;;;;;;;7.45;5.00;;;;;;;17.92;100.00;98311.66;4989605;28;20034;-76
2022/06/03 01:35:43;;;;;;;6.38;4.55;;;;;;;17.89;100.00;98317.06;4988630;28;20443;-76
2022/06/03 01:38:15;;;;;;;5.88;5.05;;;;;;;17.86;100.00;98315.78;5036793;28;20041;-75
2022/06/03 01:40:44;;;;;;;7.63;5.55;;;;;;;17.81;100.00;98304.91;5051504;28;20382;-78
2022/06/03 01:43:37;;;;;;;5.55;4.30;;;;;;;17.74;100.00;98304.63;5045044;28;20088;-76
2022/06/03 01:46:25;;;;;;;6.43;4.90;;;;;;;17.66;100.00;98311.00;5043370;28;20412;-76
2022/06/03 01:48:56;;;;;;;6.30;4.90;;;;;;;17.68;100.00;98311.47;5059153;28;20033;-77
2022/06/03 01:52:00;;;;;;;5.50;4.50;;;;;;;17.62;100.00;98318.34;5049758;28;20033;-75
2022/06/03 01:54:34;;;;;;;5.97;5.13;;;;;;;17.57;100.00;98318.53;5045681;28;20064;-75
2022/06/03 01:57:31;;;;;;;11.73;5.90;;;;;;;17.54;100.00;98305.34;5053823;28;20036;-78
2022/06/03 02:00:15;;;;;;;5.93;4.75;;;;;;;17.48;100.00;98312.19;5052023;28;20036;-76
2022/06/03 02:03:02;;;;;;;6.30;5.07;;;;;;;17.46;100.00;98301.47;5050953;28;20532;-75
2022/06/03 02:06:00;;;;;;;8.23;4.90;;;;;;;17.48;100.00;98304.69;5049456;28;20029;-75
2022/06/03 02:08:44;;;;;;;6.88;4.65;;;;;;;17.45;100.00;98307.31;5050831;28;20543;-75
2022/06/03 02:11:48;;;;;;;5.40;4.70;;;;;;;17.42;100.00;98305.19;5049648;28;20029;-76
2022/06/03 02:14:22;;;;;;;5.07;4.57;;;;;;;17.30;100.00;98310.63;5050782;28;20037;-75
2022/06/03 02:17:03;;;;;;;6.28;5.10;;;;;;;17.29;100.00;98304.28;5050558;28;20079;-76
2022/06/03 02:19:52;;;;;;;6.72;5.38;;;;;;;17.30;100.00;98300.38;5050576;28;20395;-77
2022/06/03 02:22:57;;;;;;;8.52;5.53;;;;;;;17.34;100.00;98300.53;5050554;28;20076;-75
2022/06/03 02:25:55;;;;;;;6.75;5.60;;;;;;;17.32;100.00;98289.78;5049242;28;20067;-75
2022/06/03 02:28:32;;;;;;;9.93;6.05;;;;;;;17.24;100.00;98298.13;5041070;28;20115;-75
2022/06/03 02:31:07;;;;;;;8.68;5.80;;;;;;;17.24;100.00;98301.69;5030369;28;20022;-75
2022/06/03 02:34:08;;;;;;;7.80;5.95;;;;;;;17.23;100.00;98311.13;5044974;28;20029;-75
2022/06/03 02:36:51;;;;;;;10.52;5.55;;;;;;;17.29;100.00;98309.03;5049871;28;20044;-77
2022/06/03 02:39:37;;;;;;;7.43;5.85;;;;;;;17.26;100.00;98296.63;5050552;28;20486;-76
2022/06/03 02:42:24;;;;;;;7.90;6.15;;;;;;;17.21;100.00;98304.31;5048635;28;20033;-76
2022/06/03 02:45:03;;;;;;;9.38;6.35;;;;;;;17.08;100.00;98309.72;5041237;28;20072;-75
2022/06/03 02:47:37;;;;;;;8.50;6.05;;;;;;;17.12;100.00;98307.09;5030235;28;20037;-76
2022/06/03 02:50:13;;;;;;;8.95;6.45;;;;;;;17.04;100.00;98305.19;5028946;28;20483;-76
2022/06/03 02:53:02;;;;;;;8.57;6.63;;;;;;;17.12;100.00;98307.09;5028849;28;20455;-76
2022/06/03 02:56:00;;;;;;;7.95;6.38;;;;;;;17.10;100.00;98304.66;5028882;28;20032;-76
2022/06/03 02:58:31;;;;;;;8.43;6.15;;;;;;;17.08;100.00;98306.94;5030047;28;20026;-75
2022/06/03 03:01:21;;;;;;;10.68;6.28;;;;;;;17.16;100.00;98315.56;5030448;28;20128;-77
2022/06/03 03:04:08;;;;;;;9.88;7.22;;;;;;;17.22;100.00;98322.53;5029020;28;20037;-75
2022/06/03 03:07:09;;;;;;;7.90;6.00;;;;;;;17.33;100.00;98321.84;5030094;28;20033;-78
2022/06/03 03:10:06;;;;;;;8.93;6.20;;;;;;;17.34;100.00;98314.34;5031735;28;20022;-77
2022/06/03 03:12:32;;;;;;;10.65;6.32;;;;;;;17.25;100.00;98317.16;5033938;28;20116;-76
2022/06/03 03:15:15;;;;;;;9.98;6.00;;;;;;;17.24;100.00;98323.00;5033848;28;20122;-75
2022/06/03 03:18:18;;;;;;;8.07;6.35;;;;;;;17.35;100.00;98329.81;5032340;28;20164;-78
2022/06/03 03:20:58;;;;;;;8.55;5.75;;;;;;;17.56;100.00;98327.97;5015729;28;20055;-75
2022/06/03 03:23:44;;;;;;;9.05;5.78;;;;;;;17.65;100.00;98323.22;5033738;28;20084;-75
2022/06/03 03:26:22;;;;;;;7.28;6.05;;;;;;;17.72;100.00;98334.59;5023362;28;20033;-77
2022/06/03 03:29:28;;;;;;;9.25;5.65;;;;;;;17.75;100.00;98336.69;5033151;28;20121;-75
2022/06/03 03:32:06;;;;;;;;;;;;;;;17.81;100.00;98343.66;5022406;28;20050;-75
2022/06/03 03:35:09;;;;;;;10.00;6.00;;;;;;;17.86;100.00;98346.22;5048752;28;19917;-75
2022/06/03 03:38:12;;;;;;;10.20;6.75;;;;;;;17.86;100.00;98349.00;5033630;28;20112;-76
2022/06/03 03:41:12;;;;;;;9.02;5.68;;;;;;;17.90;100.00;98362.97;5048786;28;20037;-74
2022/06/03 03:44:15;;;;;;;7.65;5.53;;;;;;;17.97;100.00;98375.16;5033204;28;20439;-73
2022/06/03 03:46:55;;;;;;;7.85;4.53;;;;;;;17.98;100.00;98376.78;5033238;28;20033;-74
2022/06/03 03:49:44;;;;;;;7.78;5.72;;;;;;;18.02;100.00;98371.38;5048631;28;20436;-74
2022/06/03 03:52:22;;;;;;;7.10;5.20;;;;;;;17.92;100.00;98367.03;5033285;28;20026;-74
2022/06/03 03:54:53;;;;;;;7.68;5.78;;;;;;;18.03;100.00;98373.84;5048599;28;20033;-74
2022/06/03 03:57:36;;;;;;;12.68;5.05;;;;;;;18.04;100.00;98378.22;5032251;28;21101;-74
2022/06/03 04:00:07;;;;;;;7.13;5.57;;;;;;;17.94;100.00;98373.06;5024499;28;20120;-73
2022/06/03 04:03:05;;;;;;;6.72;5.25;;;;;;;17.85;100.00;98374.25;5014463;28;20486;-73
2022/06/03 04:05:39;;;;;;;8.30;6.25;;;;;;;17.82;100.00;98372.97;5032796;28;20038;-74
2022/06/03 04:08:42;;;;;;;8.45;5.70;;;;;;;17.88;100.00;98370.81;5033546;28;20474;-74
2022/06/03 04:11:31;;;;;;;11.00;5.93;;;;;;;17.84;100.00;98370.66;5050534;28;20030;-73
2022/06/03 04:14:34;;;;;;;8.40;5.35;;;;;;;17.83;100.00;98363.50;5033019;28;20044;-73
2022/06/03 04:17:18;;;;;;;8.55;5.95;;;;;;;17.79;100.00;98358.97;5031304;28;20034;-73
2022/06/03 04:20:14;;;;;;;8.02;6.28;;;;;;;17.84;100.00;98358.78;5031162;28;20049;-77
2022/06/03 04:23:03;;;;;;;11.55;6.20;;;;;;;17.79;100.00;98368.09;5031819;28;20037;-73
2022/06/03 04:25:46;;;;;;;8.50;6.15;;;;;;;17.80;100.00;98358.63;5032311;28;20060;-73
2022/06/03 04:28:49;;;;;;;7.05;5.90;;;;;;;18.00;100.00;98374.50;5047569;28;20152;-75
2022/06/03 04:31:35;;;;;;;9.35;6.93;;;;;;;18.25;100.00;98380.22;5047519;28;20403;-74
2022/06/03 04:34:15;;;;;;;8.30;6.32;;;;;;;18.47;100.00;98366.06;5032332;28;20041;-74
2022/06/03 04:37:18;;;;;;;10.85;5.97;;;;;;;18.38;100.00;98374.44;5024675;28;20045;-74
2022/06/03 04:39:43;;;;;;;8.15;5.82;;;;;;;18.76;100.00;98377.16;5015239;28;20065;-72
2022/06/03 04:42:49;;;;;;;6.82;5.85;;;;;;;18.84;100.00;98380.97;5011079;28;20029;-74
2022/06/03 04:45:45;;;;;;;8.05;6.38;;;;;;;18.96;100.00;98389.34;5012330;28;20391;-73
2022/06/03 04:48:29;;;;;;;;;;;;;;;18.68;100.00;98380.78;5012691;28;20033;-73
2022/06/03 04:51:35;;;;;;;8.27;6.88;;;;;;;18.39;100.00;98392.66;5012316;28;19917;-72
2022/06/03 04:54:25;;;;;;;9.40;6.53;;;;;;;18.62;100.00;98387.66;5030237;28;20029;-72
2022/06/03 04:57:38;;;;;;;10.25;7.53;;;;;;;18.63;100.00;98392.06;5031870;28;20087;-73
2022/06/03 05:00:25;;;;;;;10.57;7.40;;;;;;;18.72;100.00;98395.59;5000286;28;20045;-72
2022/06/03 05:03:02;;;;;;;11.73;8.57;;;;;;;18.68;100.00;98389.91;5032005;28;20049;-72
2022/06/03 05:05:59;;;;;;;9.75;7.80;;;;;;;18.46;100.00;98389.38;5033859;28;20022;-75
2022/06/03 05:08:47;;;;;;;9.25;7.35;;;;;;;18.36;100.00;98392.53;5033726;28;20494;-73
2022/06/03 05:11:18;;;;;;;8.73;7.22;;;;;;;18.21;100.00;98393.94;5031700;28;20021;-73
2022/06/03 05:13:52;;;;;;;10.90;7.60;;;;;;;18.47;100.00;98391.00;5031369;28;20033;-74
2022/06/03 05:16:42;;;;;;;10.03;7.97;;;;;;;18.69;100.00;98380.44;5030057;28;20395;-73
2022/06/03 05:19:45;;;;;;;10.73;8.55;;;;;;;18.80;100.00;98388.34;5015298;28;20045;-74
2022/06/03 05:22:48;;;;;;;9.55;7.40;;;;;;;18.99;100.00;98395.03;5028422;28;20041;-74
2022/06/03 05:25:32;;;;;;;9.60;7.07;;;;;;;19.13;100.00;98390.03;5051197;28;20071;-74
2022/06/03 05:28:18;;;;;;;11.70;7.35;;;;;;;19.07;100.00;98382.25;5051067;28;20056;-75
2022/06/03 05:31:01;;;;;;;8.98;7.35;;;;;;;19.18;100.00;98387.03;5033141;28;20137;-74
2022/06/03 05:33:59;;;;;;;9.73;7.35;;;;;;;19.12;100.00;98388.41;5049959;28;20032;-75
2022/06/03 05:36:48;;;;;;;8.52;6.47;;;;;;;19.34;100.00;98383.59;5048712;28;20029;-75
2022/06/03 05:39:31;;;;;;;8.32;6.80;;;;;;;19.47;100.00;98390.84;5050911;28;20029;-75
2022/06/03 05:42:24;;;;;;;9.18;7.45;;;;;;;18.80;100.00;98380.03;5050785;28;20087;-75
2022/06/03 05:44:49;;;;;;;8.25;6.43;;;;;;;19.13;100.00;98384.47;5050819;28;20025;-75
2022/06/03 05:47:17;;;;;;;10.82;7.30;;;;;;;19.30;100.00;98388.22;5049523;28;20043;-75
2022/06/03 05:50:08;;;;;;;10.68;6.60;;;;;;;19.62;100.00;98390.19;5049634;28;20036;-75
2022/06/03 05:52:39;;;;;;;8.00;6.55;;;;;;;19.71;100.00;98390.91;5032411;28;20033;-75
2022/06/03 05:55:47;;;;;;;10.57;6.80;;;;;;;19.81;100.00;98392.44;5050563;28;20024;-74
2022/06/03 05:58:43;;;;;;;12.18;8.30;;;;;;;19.41;100.00;98395.81;4988878;28;20125;-75
2022/06/03 06:01:51;;;;;;;8.95;6.90;;;;;;;20.05;100.00;98404.38;5049299;28;20025;-75
2022/06/03 06:04:26;;;;;;;8.95;6.88;;;;;;;19.92;100.00;98402.75;4988924;28;20034;-74
2022/06/03 06:07:05;;;;;;;9.73;7.07;;;;;;;19.98;100.00;98404.16;5037333;28;20418;-74
2022/06/03 06:09:43;;;;;;;8.52;6.43;;;;;;;20.49;100.00;98402.66;5046381;28;20087;-74
2022/06/03 06:12:17;;;;;;;11.80;8.80;;;;;;;20.97;100.00;98392.59;5050202;28;20120;-74
2022/06/03 06:14:57;;;;;;;10.30;8.15;;;;;;;21.58;100.00;98399.53;5048147;28;20508;-74
2022/06/03 06:17:43;;;;;;;12.88;7.45;;;;;;;22.10;100.00;98396.56;5045484;28;20471;-74
2022/06/03 06:20:18;;;;;;;11.60;8.30;;;;;;;22.29;100.00;98405.00;5040688;28;20052;-76
2022/06/03 06:22:49;;;;;;;10.15;8.23;;;;;;;22.25;100.00;98387.38;5038784;28;20530;-74
2022/06/03 06:25:17;;;;;;;11.15;8.02;;;;;;;22.41;100.00;98402.13;5037292;28;20777;-74
2022/06/03 06:27:57;;;;;;;10.32;8.82;;;;;;;22.17;100.00;98404.28;5039688;28;20557;-74
2022/06/03 06:30:42;;;;;;;15.05;8.90;;;;;;;22.15;100.00;98406.63;5040101;28;20025;-74
2022/06/03 06:33:33;;;;;;;10.18;7.50;;;;;;;22.79;100.00;98409.00;5040188;28;20020;-73
2022/06/03 06:36:29;;;;;;;11.93;8.10;;;;;;;23.21;100.00;98418.28;5024327;28;20029;-73
2022/06/03 06:39:12;;;;;;;9.77;7.03;;;;;;;23.28;100.00;98421.22;5045076;28;20107;-73
2022/06/03 06:42:02;;;;;;;9.35;6.72;;;;;;;23.13;100.00;98424.91;5040264;28;20036;-73
2022/06/03 06:44:33;;;;;;;8.65;5.97;;;;;;;22.57;100.00;98412.44;5038985;28;20110;-73
2022/06/03 06:47:17;;;;;;;8.20;6.03;;;;;;;22.39;100.00;98412.00;5024662;28;20036;-72
2022/06/03 06:49:51;;;;;;;9.98;7.43;;;;;;;22.37;100.00;98415.16;5042779;28;20033;-73
2022/06/03 06:52:56;;;;;;;11.60;7.53;;;;;;;22.32;100.00;98411.84;5042080;28;20060;-73
2022/06/03 06:55:42;;;;;;;10.98;7.00;;;;;;;22.43;100.00;98408.13;4984439;28;20718;-74
2022/06/03 06:58:24;;;;;;;9.85;7.35;;;;;;;22.51;100.00;98413.88;5043385;28;20104;-72
2022/06/03 07:00:53;;;;;;;11.40;8.05;;;;;;;22.74;100.00;98409.28;5046950;28;20398;-73
2022/06/03 07:03:43;;;;;;;8.60;7.63;;;;;;;22.67;100.00;98414.69;5048541;28;20021;-74
2022/06/03 07:06:19;;;;;;;8.85;6.65;;;;;;;22.80;100.00;98399.44;5047341;28;20068;-73
2022/06/03 07:09:19;;;;;;;9.32;6.80;;;;;;;22.97;100.00;98404.59;5049882;28;20025;-74
2022/06/03 07:11:44;;;;;;;9.38;6.72;;;;;;;22.73;100.00;98404.88;5047853;28;20025;-73
2022/06/03 07:14:28;;;;;;;9.50;6.50;;;;;;;23.14;100.00;98398.59;5049399;28;20035;-74
2022/06/03 07:20:11;;;;;;;8.23;7.07;;;;;;;22.92;100.00;98402.13;5050265;28;20591;-78
2022/06/03 07:22:57;;;;;;;10.20;7.93;;;;;;;23.16;99.55;98401.81;5044447;28;20098;-76
2022/06/03 07:25:33;;;;;;;8.35;7.10;;;;;;;23.11;99.72;98404.91;5049609;28;20028;-80
2022/06/03 07:28:17;;;;;;;11.02;7.47;;;;;;;23.72;96.77;98410.56;5050806;28;20465;-80
2022/06/03 07:31:04;;;;;;;10.35;7.40;;;;;;;24.30;90.44;98402.84;5063196;28;20023;-79
2022/06/03 07:33:29;;;;;;;11.63;7.70;;;;;;;24.10;91.38;98406.84;5055811;28;20440;-76
2022/06/03 07:35:58;;;;;;;12.47;8.27;;;;;;;24.22;89.78;98403.88;5038547;28;20103;-75
2022/06/03 07:38:54;;;;;;;9.90;8.00;;;;;;;24.38;88.24;98412.94;5052343;28;20270;-77
2022/06/03 07:41:32;;;;;;;9.98;7.28;;;;;;;24.65;87.04;98398.97;5052376;28;20074;-74
2022/06/03 07:44:28;;;;;;;7.10;6.03;;;;;;;24.99;82.33;98393.09;5053509;28;20122;-77
2022/06/03 07:47:00;;;;;;;7.25;6.00;;;;;;;24.76;81.66;98397.94;5041681;28;20068;-75
2022/06/03 07:49:28;;;;;;;7.45;6.35;;;;;;;24.56;83.44;98390.06;5042440;28;20028;-76
2022/06/03 07:51:59;;;;;;;8.82;7.22;;;;;;;24.06;86.05;98386.41;5053041;28;20024;-78
2022/06/03 07:54:31;;;;;;;7.80;6.45;;;;;;;24.37;84.39;98388.94;5051481;28;20025;-77
2022/06/03 07:57:10;;;;;;;9.25;6.65;;;;;;;24.57;84.79;98380.44;5049601;28;20036;-77
2022/06/03 07:59:42;;;;;;;9.30;5.95;;;;;;;25.12;81.53;98390.88;5053467;28;20016;-75
2022/06/03 08:02:10;;;;;;;9.80;5.68;;;;;;;25.20;78.84;98391.75;5053245;28;20025;-77
2022/06/03 08:04:37;;;;;;;6.70;5.50;;;;;;;25.37;78.34;98391.97;5054256;28;20025;-75
2022/06/03 08:12:38;;;;;;;6.95;5.32;;;;;;;29.42;60.88;98396.91;5053283;28;20071;-76
2022/06/03 08:15:19;;;;;;;6.07;5.00;;;;;;;30.58;55.85;98400.22;5053110;28;20041;-75
2022/06/03 08:17:46;;;;;;;9.75;5.90;;;;;;;27.39;64.55;98383.22;5053047;28;20036;-75
2022/06/03 08:20:14;;;;;;;8.00;6.10;;;;;;;27.84;63.19;98389.41;5052967;28;20076;-77
2022/06/03 08:22:40;;;;;;;9.02;5.60;;;;;;;26.99;66.37;98372.22;5052740;28;20025;-77
2022/06/03 08:25:08;;;;;;;8.68;5.78;;;;;;;27.39;64.90;98368.34;5052800;28;20029;-75
2022/06/03 08:27:35;;;;;;;11.27;5.00;;;;;;;30.00;56.00;98372.84;5053017;28;20090;-75
2022/06/03 08:30:08;;;;;;;6.88;4.95;;;;;;;32.04;49.05;98377.53;5054336;28;20103;-75
2022/06/03 08:32:39;;;;;;;4.88;4.38;;;;;;;32.74;46.04;98382.00;5049492;28;20327;-76
2022/06/03 08:35:07;;;;;;;5.03;4.05;;;;;;;35.15;40.13;98383.03;5033172;28;20452;-75
2022/06/03 08:37:49;;;;;;;5.07;4.10;;;;;;;35.07;38.00;98383.66;5032963;28;20040;-76
2022/06/03 08:40:19;;;;;;;6.28;4.30;;;;;;;34.46;39.04;98380.81;5033243;28;20021;-77
2022/06/03 08:42:54;;;;;;;4.85;4.22;;;;;;;34.40;39.62;98377.69;5032990;28;20029;-76
2022/06/03 08:45:20;;;;;;;4.53;3.90;;;;;;;33.48;41.21;98379.78;5032398;28;20014;-76
2022/06/03 08:47:50;;;;;;;5.18;4.32;;;;;;;31.06;46.37;98366.25;5031218;28;20059;-75
2022/06/03 08:50:51;;;;;;;7.25;4.43;;;;;;;27.21;57.67;98362.69;5032379;28;20356;-76
2022/06/03 08:53:23;;;;;;;6.97;4.65;;;;;;;26.01;62.29;98359.03;5032603;28;20064;-75
2022/06/03 08:55:53;;;;;;;7.47;4.75;;;;;;;26.96;58.74;98358.94;5032227;28;20037;-76
2022/06/03 08:58:54;;;;;;;5.93;4.97;;;;;;;27.28;58.08;98353.47;5032320;28;20060;-75
2022/06/03 09:01:28;;;;;;;6.18;4.82;;;;;;;26.99;58.64;98352.53;5032278;28;20054;-75
2022/06/03 09:04:15;;;;;;;6.47;4.68;;;;;;;27.16;58.47;98351.03;5014520;28;20421;-75
2022/06/03 09:07:02;;;;;;;5.97;4.70;;;;;;;27.26;58.50;98351.03;5031749;28;20421;-75
2022/06/03 09:10:05;;;;;;;7.18;5.32;;;;;;;26.19;61.99;98345.19;5032682;28;20032;-76
2022/06/03 09:12:30;;;;;;;5.53;4.85;;;;;;;26.67;60.71;98346.72;5032251;28;20054;-75
2022/06/03 09:15:03;;;;;;;4.93;4.35;;;;;;;26.14;62.55;98351.94;5035207;28;20470;-75
2022/06/03 09:17:40;;;;;;;6.25;5.05;;;;;;;26.62;60.53;98355.53;5035671;28;20025;-77
2022/06/03 09:20:34;;;;;;;6.47;5.10;;;;;;;26.86;59.06;98343.66;5041240;28;20043;-77
2022/06/03 09:23:11;;;;;;;5.95;5.32;;;;;;;26.37;60.62;98332.91;5015728;28;20049;-76
2022/06/03 09:25:43;;;;;;;6.22;5.30;;;;;;;26.62;60.47;98321.84;5032039;28;20037;-75
2022/06/03 09:28:14;;;;;;;5.93;4.10;;;;;;;27.48;57.63;98316.22;5031727;28;20052;-75
2022/06/03 09:30:40;;;;;;;5.63;4.50;;;;;;;28.30;55.37;98322.72;5031978;28;20031;-75
2022/06/03 09:33:11;;;;;;;7.53;4.18;;;;;;;30.23;49.82;98325.06;5031685;28;20368;-77
2022/06/03 09:35:42;;;;;;;5.10;3.97;;;;;;;29.48;51.08;98321.97;5031838;28;20037;-75
2022/06/03 09:38:10;;;;;;;5.03;4.22;;;;;;;29.00;51.78;98330.22;5031845;28;20721;-74
2022/06/03 09:40:40;;;;;;;7.13;4.20;;;;;;;28.83;53.21;98333.09;5032144;28;20063;-77
2022/06/03 09:43:08;;;;;;;6.30;3.75;;;;;;;28.33;53.98;98319.09;5031749;28;20017;-75
2022/06/03 09:45:35;;;;;;;5.47;4.07;;;;;;;27.81;56.37;98315.06;5030598;28;20467;-78
2022/06/03 09:48:04;;;;;;;6.00;4.05;;;;;;;26.94;59.05;98311.59;5029975;28;20036;-76
2022/06/03 09:50:30;;;;;;;4.60;3.78;;;;;;;26.18;62.25;98318.34;5031145;28;20064;-78
2022/06/03 09:53:26;;;;;;;5.63;4.20;;;;;;;25.92;62.78;98317.28;5031143;28;20126;-76
2022/06/03 09:55:53;;;;;;;;;;;;;;;26.15;62.92;98317.09;5030928;28;20045;-77
2022/06/03 09:58:23;;;;;;;6.97;5.03;;;;;;;25.88;63.56;98319.25;5030680;28;19913;-77
2022/06/03 10:00:51;;;;;;;6.30;4.55;;;;;;;25.73;64.38;98317.53;5031243;28;20116;-77
2022/06/03 10:03:18;;;;;;;6.10;4.00;;;;;;;25.21;66.10;98317.75;5031410;28;20422;-75
2022/06/03 10:05:54;;;;;;;6.28;4.38;;;;;;;24.59;68.68;98308.94;5013170;28;20036;-76
2022/06/03 10:08:24;;;;;;;6.03;4.63;;;;;;;25.07;67.68;98309.19;5029855;28;20057;-76
2022/06/03 10:13:39;;;;;;;8.65;4.25;;;;;;;26.34;62.45;98310.44;5030993;28;20098;-75
2022/06/03 10:16:07;;;;;;;5.25;4.13;;;;;;;26.86;60.46;98304.34;5029825;28;20631;-77
2022/06/03 10:18:51;;;;;;;5.38;4.03;;;;;;;26.82;60.49;98292.28;5030492;28;20013;-77
2022/06/03 10:21:19;;;;;;;6.22;3.80;;;;;;;26.97;60.23;98298.78;5030882;28;20175;-75
2022/06/03 10:23:51;;;;;;;6.00;4.25;;;;;;;26.67;61.06;98292.56;5029460;28;20048;-76
2022/06/03 10:26:20;;;;;;;5.70;4.15;;;;;;;26.57;61.05;98278.09;5030898;28;20689;-76
2022/06/03 10:28:49;;;;;;;5.57;4.25;;;;;;;26.66;60.60;98282.56;5030984;28;20096;-76
2022/06/03 10:31:17;;;;;;;4.97;4.05;;;;;;;26.47;61.72;98281.63;5030689;28;20033;-77
2022/06/03 10:34:01;;;;;;;8.20;3.80;;;;;;;27.14;59.12;98272.75;5030533;28;20036;-76
2022/06/03 10:36:34;;;;;;;4.22;3.60;;;;;;;26.27;60.87;98263.50;5012783;28;20386;-75
2022/06/03 10:39:00;;;;;;;4.85;3.75;;;;;;;27.45;57.28;98257.97;5030924;28;20048;-77
2022/06/03 10:41:38;;;;;;;4.53;3.67;;;;;;;27.66;56.87;98252.38;5031430;28;20061;-77
2022/06/03 10:44:16;;;;;;;6.53;4.43;;;;;;;26.98;59.59;98249.81;5031415;28;20026;-76
2022/06/03 10:47:20;;;;;;;5.32;3.80;;;;;;;26.30;61.17;98231.84;5035172;28;20034;-75
2022/06/03 10:49:55;;;;;;;4.25;3.70;;;;;;;26.40;60.50;98235.91;5011406;28;20038;-76
2022/06/03 11:01:07;;;;;;;5.68;3.88;;;;;;;26.67;59.79;98228.81;5031270;28;20638;-76
2022/06/03 11:03:35;;;;;;;6.53;4.35;;;;;;;26.91;59.07;98228.13;5029149;28;20866;-75
2022/06/03 11:06:12;;;;;;;9.00;4.22;;;;;;;26.16;61.79;98219.75;5030750;28;20033;-76
2022/06/03 11:08:59;;;;;;;7.70;3.83;;;;;;;25.99;62.45;98226.81;5030687;28;20124;-75
2022/06/03 11:11:32;;;;;;;5.25;3.58;;;;;;;26.67;61.13;98216.78;5029711;28;20090;-75
2022/06/03 11:13:59;;;;;;;6.68;3.88;;;;;;;27.67;57.47;98223.06;5030271;28;20053;-78
2022/06/03 11:16:26;;;;;;;4.18;3.33;;;;;;;28.33;55.44;98220.59;5030626;28;20026;-73
2022/06/03 11:18:52;;;;;;;4.60;3.38;;;;;;;28.67;53.86;98227.31;5030393;28;20053;-72
2022/06/03 11:21:23;;;;;;;5.38;3.40;;;;;;;27.29;56.74;98235.03;5030305;28;20379;-73
2022/06/03 11:23:49;;;;;;;5.78;3.38;;;;;;;26.32;60.09;98218.22;5028975;28;20037;-72
2022/06/03 11:26:15;;;;;;;5.82;3.63;;;;;;;26.17;60.65;98222.16;5035945;28;20033;-73
2022/06/03 11:28:51;;;;;;;6.05;3.50;;;;;;;26.90;59.60;98214.50;5032627;28;20026;-70
2022/06/03 11:31:23;;;;;;;4.90;3.78;;;;;;;27.14;58.65;98231.41;5032792;28;20159;-70
2022/06/03 11:34:16;;;;;;;4.20;3.25;;;;;;;27.66;57.51;98232.69;5033483;28;20026;-71
2022/06/03 11:36:44;;;;;;;4.72;3.65;;;;;;;27.17;58.39;98218.56;5033708;28;20454;-71
2022/06/03 11:39:33;;;;;;;4.47;3.63;;;;;;;26.29;61.77;98206.97;5053475;28;20029;-71
2022/06/03 11:42:04;;;;;;;5.25;3.40;;;;;;;26.39;61.15;98209.84;5032511;28;20061;-72
2022/06/03 11:44:44;;;;;;;5.55;3.13;;;;;;;26.40;62.08;98217.09;5032033;28;20045;-71
2022/06/03 11:47:17;;;;;;;4.22;3.20;;;;;;;27.24;57.08;98212.97;5032073;28;20079;-72
2022/06/03 11:49:43;;;;;;;5.05;3.63;;;;;;;27.67;55.85;98213.81;5049673;28;20103;-72
2022/06/03 11:52:08;;;;;;;5.07;3.50;;;;;;;27.85;56.57;98211.00;5050110;28;20453;-72
2022/06/03 11:54:34;;;;;;;5.40;3.50;;;;;;;27.96;56.46;98208.97;5032100;28;20481;-72
2022/06/03 11:57:02;;;;;;;6.80;3.25;;;;;;;28.04;57.17;98214.19;5045654;28;20033;-72
2022/06/03 11:59:40;;;;;;;6.35;3.67;;;;;;;28.21;55.68;98225.84;5018928;28;20033;-73
2022/06/03 12:02:33;;;;;;;4.70;3.72;;;;;;;28.44;55.48;98212.91;5042538;28;20397;-74
2022/06/03 12:05:02;;;;;;;6.28;3.40;;;;;;;28.50;54.44;98216.13;5028048;28;20063;-73
2022/06/03 12:07:44;;;;;;;4.25;3.10;;;;;;;29.13;52.67;98223.50;5024172;28;20017;-73
2022/06/03 12:10:21;;;;;;;7.35;3.75;;;;;;;28.99;52.32;98221.53;5039805;28;20036;-74
2022/06/03 12:15:57;;;;;;;4.50;3.28;;;;;;;27.88;55.80;98230.66;5046145;28;20509;-73
2022/06/03 12:18:31;;;;;;;4.95;3.50;;;;;;;28.23;55.20;98229.03;5038933;28;20037;-77
2022/06/03 12:20:58;;;;;;;5.15;3.30;;;;;;;28.02;55.62;98225.03;5040941;28;20033;-76
2022/06/03 12:23:24;;;;;;;8.57;3.42;;;;;;;27.31;56.83;98223.41;5025071;28;20030;-77
2022/06/03 12:25:50;;;;;;;4.70;3.53;;;;;;;27.20;57.63;98212.13;5047693;28;20543;-77
2022/06/03 12:28:37;;;;;;;4.90;3.33;;;;;;;27.56;56.93;98215.84;5049786;28;20274;-81
2022/06/03 12:31:07;;;;;;;4.10;3.15;;;;;;;27.37;57.08;98216.19;5047667;28;20146;-80
2022/06/03 12:33:45;;;;;;;6.55;4.40;;;;;;;28.50;54.51;98211.28;5045219;28;20076;-81
2022/06/03 12:36:29;;;;;;;5.03;3.15;;;;;;;29.10;53.09;98208.19;5042651;28;20025;-75
2022/06/03 12:39:31;;;;;;;5.25;3.53;;;;;;;28.26;54.88;98208.53;5035297;28;20032;-77
2022/06/03 12:41:58;;;;;;;10.23;4.00;;;;;;;27.74;56.35;98213.81;4998720;28;20038;-79
2022/06/03 12:44:44;;;;;;;8.13;3.55;;;;;;;28.11;55.56;98204.94;5047476;28;20040;-81
2022/06/03 12:47:18;;;;;;;6.20;3.70;;;;;;;27.19;58.81;98202.09;5040739;28;20040;-77
2022/06/03 12:49:44;;;;;;;5.30;3.83;;;;;;;27.78;56.35;98208.19;5045441;28;20032;-75
2022/06/03 12:52:35;;;;;;;4.47;3.30;;;;;;;27.93;55.94;98204.16;5025199;28;20030;-76
2022/06/03 12:55:00;;;;;;;5.45;3.45;;;;;;;28.27;54.61;98196.06;5041097;28;20482;-76
2022/06/03 12:57:37;;;;;;;6.03;3.80;;;;;;;28.21;55.04;98192.06;5050114;28;20055;-75